Latest Weather Observations for Combienbar

IDV60801

Issued at 1:31 pm EST Tuesday 1 September 2015 (issued every 30 minutes, with the page automatically refreshed every 10 minutes)

About weather observations | Map of weather stations | Latest weather observations for VIC | Other Formats
Station Details ID: 084143 Name: COMBIENBAR AWS Lat: -37.34 Lon: 149.02 Height: 640.0 m
Data from the previous 72 hours. | See also: Recent months at Combienbar
Date/Time
EST
Temp
°C
App
Temp
°C
Dew
Point
Rel
Hum
%
Delta-T
°C
Wind Press
QNH
hPa
Press
MSL
hPa
Rain
since 9 am
mm
Dir
 
Spd
km/h
Gust
km/h
Spd
kts
Gust
kts
01/01:30pm 9.7 8.4 4.3 69 2.5 CALM 0 2 0 1 1013.8 1013.4 0.0
01/01:00pm 9.3 8.0 4.1 70 2.4 CALM 0 6 0 3 1014.1 1013.7 0.0
01/12:30pm 8.9 7.6 3.9 71 2.3 CALM 0 0 0 0 1014.4 1014.0 0.0
01/12:00pm 8.1 6.6 3.2 71 2.2 CALM 0 2 0 1 1014.9 1014.5 0.0
01/11:30am 7.7 6.3 3.4 74 1.9 CALM 0 2 0 1 1015.3 1014.9 0.0
01/11:00am 8.0 6.2 3.3 72 2.1 SW 2 6 1 3 1015.4 1015.0 0.0
01/10:30am 6.5 4.5 2.4 75 1.8 WSW 2 6 1 3 1015.3 1014.9 0.0
01/10:00am 7.0 5.1 2.7 74 1.9 SSW 2 4 1 2 1015.4 1015.0 0.0
01/09:30am 6.5 4.0 1.8 72 2.0 SW 4 7 2 4 1015.5 1015.7 0.0
01/09:00am 5.5 2.4 1.2 74 1.8 SW 7 15 4 8 1015.6 1015.8 0.0
01/08:30am 4.8 1.8 0.9 76 1.6 SW 6 11 3 6 1015.7 1015.9 0.0
01/08:00am 4.7 1.5 0.8 76 1.6 SW 7 15 4 8 1015.5 1015.7 0.0
01/07:30am 4.3 1.1 1.0 79 1.3 SW 7 13 4 7 1015.4 1015.6 0.0
01/07:00am 4.1 0.5 0.8 79 1.3 SW 9 15 5 8 1015.2 1015.4 0.0
01/06:30am 4.1 0.6 1.0 80 1.3 SW 9 15 5 8 1014.9 1015.1 0.0
01/06:00am 4.3 0.4 1.3 81 1.2 SW 11 15 6 8 1014.9 1015.1 0.0
01/05:30am 4.3 1.4 1.2 80 1.3 SSW 6 11 3 6 1015.1 1015.3 0.0
01/05:00am 4.3 1.1 0.5 76 1.5 SW 7 17 4 9 1014.9 1015.1 0.0
01/04:30am 4.2 1.0 0.5 77 1.5 WSW 7 22 4 12 1014.8 1015.0 0.0
01/04:00am 4.3 0.8 1.0 79 1.3 SW 9 15 5 8 1014.7 1014.9 0.0
01/03:30am 3.8 0.9 1.2 83 1.1 SW 6 9 3 5 1015.0 1015.2 0.0
01/03:00am 3.7 1.2 1.3 84 1.0 SW 4 11 2 6 1015.1 1015.3 0.0
01/02:30am 3.9 1.0 1.3 83 1.1 SW 6 13 3 7 1015.1 1015.3 0.0
01/02:00am 3.8 0.7 1.4 84 1.0 SW 7 15 4 8 1015.4 1015.6 0.0
01/01:30am 3.6 1.4 0.8 82 1.1 SW 2 6 1 3 1015.8 1016.0 0.0
01/01:00am 3.9 1.3 1.1 82 1.1 SSW 4 11 2 6 1015.9 1016.2 0.0
01/12:30am 4.3 1.4 1.5 82 1.1 SW 6 17 3 9 1016.3 1016.5 0.0
01/12:00am 4.5 1.6 1.5 81 1.2 SW 6 9 3 5 1016.4 1016.6 0.0
 
Date/Time
EST
Temp
°C
App
Temp
°C
Dew
Point
Rel
Hum
%
Delta-T
°C
Wind Press
QNH
hPa
Press
MSL
hPa
Rain
since 9 am
mm
Dir
 
Spd
km/h
Gust
km/h
Spd
kts
Gust
kts
31/11:30pm 4.6 1.8 2.3 85 1.0 SW 6 11 3 6 1016.3 1016.5 0.0
31/11:00pm 4.7 1.9 2.2 84 1.0 SW 6 11 3 6 1016.5 1016.7 0.0
31/10:30pm 4.8 2.5 2.7 86 0.9 SW 4 6 2 3 1016.7 1016.9 0.0
31/10:00pm 4.7 2.8 3.0 89 0.7 SW 2 6 1 3 1016.8 1017.0 0.0
31/09:30pm 5.0 2.7 2.9 86 0.9 SW 4 9 2 5 1016.8 1017.0 0.0
31/09:00pm 4.9 2.7 3.1 88 0.8 SW 4 7 2 4 1016.9 1017.1 0.0
31/08:30pm 4.8 2.6 3.6 92 0.5 SSW 4 9 2 5 1016.9 1017.1 0.0
31/08:00pm 5.1 2.5 3.1 87 0.9 SW 6 13 3 7 1016.9 1017.1 0.0
31/07:30pm 5.2 2.7 3.7 90 0.7 SW 6 11 3 6 1016.8 1017.0 0.0
31/07:00pm 5.0 3.7 4.1 94 0.4 CALM 0 2 0 1 1016.7 1016.9 0.0
31/06:30pm 5.1 3.4 3.9 92 0.5 SW 2 6 1 3 1016.6 1016.8 0.0
31/06:00pm 5.4 3.3 3.7 89 0.7 SW 4 6 2 3 1016.5 1016.7 0.0
31/05:30pm 5.7 4.0 4.0 89 0.8 SW 2 7 1 4 1016.5 1016.7 0.0
31/05:00pm 6.0 3.9 4.0 87 0.9 SW 4 7 2 4 1016.3 1016.5 0.0
31/04:30pm 6.2 4.1 4.0 86 1.0 SSW 4 9 2 5 1016.4 1016.6 0.0
31/04:00pm 6.4 4.4 4.2 86 1.0 SW 4 9 2 5 1016.4 1016.6 0.0
31/03:30pm 6.2 4.2 4.4 88 0.8 SW 4 9 2 5 1016.6 1016.8 0.0
31/03:00pm 6.4 3.9 3.6 82 1.2 SW 6 9 3 5 1016.5 1016.7 0.0
31/02:30pm 6.9 5.3 4.6 85 1.0 SW 2 6 1 3 1016.5 1016.7 0.0
31/02:00pm 6.7 4.2 4.0 83 1.2 SW 6 9 3 5 1016.5 1016.7 0.0
31/01:30pm 8.0 6.8 4.6 79 1.6 CALM 0 4 0 2 1016.6 1016.8 0.0
31/01:00pm 7.5 5.5 4.6 82 1.3 SSW 4 6 2 3 1016.8 1017.0 0.0
31/12:30pm 7.5 5.6 4.8 83 1.2 SW 4 7 2 4 1017.2 1017.5 0.0
31/12:00pm 8.0 6.4 4.4 78 1.6 SW 2 6 1 3 1017.3 1017.6 0.0
31/11:30am 7.7 6.2 4.8 82 1.3 SSW 2 6 1 3 1017.6 1017.9 0.0
31/11:00am 7.6 6.5 5.1 84 1.1 CALM 0 4 0 2 1017.9 1018.1 0.0
31/10:30am 6.9 5.7 4.6 85 1.0 CALM 0 0 0 0 1018.0 1018.2 0.0
31/10:00am 6.1 4.9 4.4 89 0.8 CALM 0 0 0 0 1018.2 1018.4 0.0
31/09:30am 5.4 4.1 4.1 91 0.6 CALM 0 2 0 1 1018.4 1018.6 0.0
31/09:00am 4.7 2.9 3.4 91 0.6 SSW 2 4 1 2 1018.4 1018.6 1.2
31/08:30am 4.1 1.8 2.5 89 0.7 SW 4 9 2 5 1018.4 1018.6 1.2
31/08:00am 4.2 1.7 3.6 96 0.3 SW 6 7 3 4 1018.4 1018.6 1.2
31/07:30am 4.0 1.8 3.6 97 0.2 SW 4 9 2 5 1018.3 1018.5 1.2
31/07:00am 3.4 0.8 3.0 97 0.2 SW 6 9 3 5 1018.1 1018.3 1.2
31/06:30am 2.9 0.9 2.3 96 0.2 SW 2 6 1 3 1018.1 1018.3 1.2
31/06:00am 3.2 0.5 2.6 96 0.2 SW 6 13 3 7 1018.0 1018.2 1.2
31/05:30am 3.1 1.1 2.2 94 0.4 SSW 2 11 1 6 1017.9 1018.1 1.2
31/05:00am 3.6 1.2 2.3 91 0.5 SW 4 9 2 5 1018.1 1018.3 1.2
31/04:30am 3.5 1.5 2.3 92 0.5 SW 2 9 1 5 1018.1 1018.3 1.2
31/04:00am 4.0 1.2 2.2 88 0.7 SW 6 17 3 9 1018.0 1018.2 1.2
31/03:30am 3.7 0.9 1.9 88 0.7 SW 6 9 3 5 1018.1 1018.3 1.2
31/03:00am 3.5 0.7 1.9 89 0.7 SW 6 11 3 6 1018.3 1018.5 1.2
31/02:30am 3.2 0.3 1.7 90 0.6 SW 6 11 3 6 1018.7 1019.0 1.2
31/02:00am 3.1 0.5 1.0 86 0.8 SW 4 7 2 4 1019.1 1019.4 1.2
31/01:30am 2.5 -0.1 0.7 88 0.7 SW 4 6 2 3 1019.4 1019.7 1.2
31/01:00am 3.1 0.5 1.0 86 0.8 SW 4 11 2 6 1019.7 1019.9 1.2
31/12:30am 3.3 0.7 1.2 86 0.8 SW 4 9 2 5 1020.0 1020.3 1.2
31/12:00am 3.4 0.4 1.0 84 1.0 SW 6 9 3 5 1020.0 1020.3 1.2
 
Date/Time
EST
Temp
°C
App
Temp
°C
Dew
Point
Rel
Hum
%
Delta-T
°C
Wind Press
QNH
hPa
Press
MSL
hPa
Rain
since 9 am
mm
Dir
 
Spd
km/h
Gust
km/h
Spd
kts
Gust
kts
30/11:30pm 3.2 0.6 0.8 84 1.0 SW 4 11 2 6 1020.3 1020.6 1.2
30/11:00pm 3.4 0.4 1.0 84 1.0 SW 6 9 3 5 1020.5 1020.8 1.2
30/10:30pm 3.1 0.6 1.3 88 0.7 SW 4 13 2 7 1020.7 1021.0 1.2
30/10:00pm 2.9 0.8 1.6 91 0.5 SSW 2 7 1 4 1020.9 1021.2 1.2
30/09:30pm 3.1 0.7 2.1 93 0.4 SW 4 7 2 4 1021.2 1021.4 1.2
30/09:00pm 3.5 1.5 2.5 93 0.4 SW 2 6 1 3 1021.3 1021.6 1.2
30/08:30pm 4.1 1.9 3.4 95 0.3 SW 4 11 2 6 1021.4 1021.7 1.2
30/08:00pm 4.1 1.9 3.5 96 0.3 SSW 4 9 2 5 1021.3 1021.6 1.2
30/07:30pm 4.2 2.4 3.6 96 0.3 SW 2 7 1 4 1021.3 1021.6 1.2
30/07:00pm 4.2 1.7 3.6 96 0.3 SW 6 9 3 5 1020.9 1021.2 1.2
30/06:30pm 4.3 2.2 3.7 96 0.3 SW 4 9 2 5 1020.8 1021.1 1.0
30/06:00pm 4.4 2.3 4.0 97 0.2 SW 4 9 2 5 1020.6 1020.9 1.0
30/05:30pm 5.0 3.4 4.6 97 0.2 SW 2 6 1 3 1020.5 1020.8 1.0
30/05:00pm 5.0 3.8 4.4 96 0.3 CALM 0 6 0 3 1020.3 1020.6 1.0
30/04:30pm 5.3 3.8 4.9 97 0.2 SW 2 6 1 3 1020.2 1020.5 1.0
30/04:00pm 5.1 3.5 4.7 97 0.2 SW 2 4 1 2 1020.3 1020.6 1.0
30/03:30pm 5.6 4.1 5.2 97 0.2 SW 2 6 1 3 1020.4 1020.7 0.8
30/03:00pm 5.7 3.9 5.3 97 0.2 SW 4 7 2 4 1020.4 1020.7 0.8
30/02:30pm 5.4 3.5 5.0 97 0.2 SW 4 6 2 3 1020.3 1020.6 0.8
30/02:00pm 5.5 4.0 5.1 97 0.2 SSW 2 6 1 3 1020.1 1020.4 0.6
30/01:30pm 5.5 3.6 4.9 96 0.3 SSW 4 7 2 4 1020.0 1020.3 0.4
30/01:00pm 6.0 4.6 5.4 96 0.3 SSW 2 4 1 2 1020.2 1020.5 0.4
30/12:30pm 5.5 4.3 4.6 94 0.4 CALM 0 4 0 2 1020.5 1020.8 0.2
30/12:00pm 5.9 4.0 4.9 93 0.5 SW 4 7 2 4 1020.8 1021.1 0.2
30/11:30am 6.3 4.5 5.3 93 0.5 SW 4 9 2 5 1021.2 1021.4 0.2
30/11:00am 5.4 2.9 5.0 97 0.2 SSW 7 13 4 7 1021.5 1021.8 0.2
30/10:30am 5.3 3.0 4.9 97 0.2 SW 6 11 3 6 1021.5 1021.8 0.2
30/10:00am 5.2 2.9 4.6 96 0.3 SW 6 11 3 6 1021.6 1021.9 0.2
30/09:30am 5.0 2.9 4.1 94 0.4 SSW 4 9 2 5 1021.4 1021.7 0.0
30/09:00am 4.7 2.1 4.0 95 0.3 SW 7 15 4 8 1021.5 1021.8 4.6
30/08:30am 4.5 1.8 3.8 95 0.3 SW 7 15 4 8 1021.3 1021.6 4.6
30/08:00am 4.8 2.7 3.9 94 0.4 SW 4 7 2 4 1021.2 1021.4 4.6
30/07:30am 4.7 2.3 4.1 96 0.3 SW 6 11 3 6 1020.9 1021.2 4.6
30/07:00am 4.6 2.2 4.2 97 0.2 SW 6 9 3 5 1020.5 1020.8 4.6
30/06:30am 4.5 2.1 4.1 97 0.2 SSW 6 11 3 6 1020.2 1020.5 4.6
30/06:00am 4.5 2.1 4.1 97 0.2 SW 6 9 3 5 1020.0 1020.3 4.6
30/05:30am 4.5 1.9 4.1 97 0.2 SW 7 15 4 8 1019.9 1020.2 4.6
30/05:00am 4.6 2.9 4.2 97 0.2 SSW 2 6 1 3 1019.9 1020.2 4.4
30/04:30am 4.6 2.9 4.2 97 0.2 SW 2 6 1 3 1020.0 1020.3 4.2
30/04:00am 4.5 2.4 3.9 96 0.3 SW 4 7 2 4 1019.8 1020.0 4.0
30/03:30am 4.5 2.0 3.9 96 0.3 SW 6 17 3 9 1019.8 1020.0 4.0
30/03:00am 4.5 2.8 3.9 96 0.3 SSW 2 4 1 2 1020.0 1020.3 4.0
30/02:30am 4.7 2.2 4.0 95 0.3 SW 6 15 3 8 1020.0 1020.3 3.6
30/02:00am 4.6 2.1 4.0 96 0.3 SW 6 9 3 5 1020.3 1020.6 3.6
30/01:30am 4.5 1.8 3.9 96 0.3 SW 7 13 4 7 1020.6 1020.9 3.6
30/01:00am 4.6 2.1 4.0 96 0.3 SW 6 15 3 8 1020.7 1021.0 3.6
30/12:30am 4.5 1.8 3.9 96 0.3 SW 7 17 4 9 1020.7 1021.0 3.6
30/12:00am 4.6 1.6 4.0 96 0.3 SW 9 15 5 8 1020.5 1020.8 3.4
 
Date/Time
EST
Temp
°C
App
Temp
°C
Dew
Point
Rel
Hum
%
Delta-T
°C
Wind Press
QNH
hPa
Press
MSL
hPa
Rain
since 9 am
mm
Dir
 
Spd
km/h
Gust
km/h
Spd
kts
Gust
kts
29/11:30pm 4.4 1.7 3.8 96 0.3 SW 7 17 4 9 1020.6 1020.9 3.4
29/11:00pm 4.5 1.1 3.9 96 0.3 SSW 11 20 6 11 1020.6 1020.9 3.4
29/10:30pm 4.7 2.1 4.1 96 0.3 SW 7 13 4 7 1020.8 1021.1 2.6
29/10:00pm 4.8 1.8 4.2 96 0.3 SW 9 19 5 10 1020.5 1020.8 2.0
29/09:30pm 4.8 2.2 4.1 95 0.3 SW 7 17 4 9 1020.5 1020.8 1.4
29/09:00pm 4.8 2.4 4.1 95 0.3 SW 6 9 3 5 1020.5 1020.8 1.4
29/08:30pm 5.0 2.5 3.8 92 0.5 SW 6 11 3 6 1020.4 1020.7 0.8
29/08:00pm 5.0 2.4 4.1 94 0.4 SW 7 17 4 9 1020.4 1020.7 0.6
29/07:30pm 4.9 2.4 3.7 92 0.5 SW 6 9 3 5 1020.4 1020.7 0.6
29/07:00pm 5.2 2.6 4.0 92 0.5 SW 7 15 4 8 1020.2 1020.5 0.6
29/06:30pm 5.1 2.5 4.1 93 0.4 SW 7 11 4 6 1019.9 1020.2 0.6
29/06:00pm 4.9 2.4 4.0 94 0.4 SW 6 11 3 6 1019.7 1019.9 0.6
29/05:30pm 5.0 2.6 4.3 95 0.3 SW 6 13 3 7 1019.8 1020.0 0.6
29/05:00pm 5.1 3.1 4.4 95 0.3 SW 4 11 2 6 1019.3 1019.6 0.6
29/04:30pm 5.3 2.9 4.3 93 0.4 SW 6 11 3 6 1019.0 1019.3 0.2
29/04:00pm 6.0 3.2 3.2 82 1.2 SW 7 17 4 9 1018.7 1019.0 0.0
29/03:30pm 6.2 3.1 3.7 84 1.1 SW 9 15 5 8 1018.7 1019.0 0.0
29/03:00pm 5.9 2.4 3.4 84 1.1 SW 11 33 6 18 1018.7 1019.0 0.0
29/02:30pm 6.0 2.8 3.0 81 1.3 SW 9 15 5 8 1018.6 1018.9 0.0
29/02:00pm 6.3 3.5 2.9 79 1.5 SW 7 15 4 8 1018.4 1018.6 0.0

Other Formats:

Comma delimited format used in spreadsheet applications
http://www.bom.gov.au/fwo/IDV60801/IDV60801.94914.axf

JavaScript Object Notation format (JSON) in row-major order
http://www.bom.gov.au/fwo/IDV60801/IDV60801.94914.json